Time;durP1;ratioP1;P1;durP2;ratioP2;P2;SDS_P1;SDS_P2;PMS_P1;PMS_P2;Temp;Humidity;BMP_temperature;BMP_pressure;BME280_temperature;BME280_humidity;BME280_pressure;Samples;Min_cycle;Max_cycle;Signal;HPM_P1;HPM_P2
2021/08/03 00:00:56;;;;;;;6.87;4.65;;;;;;;21.65;45.01;100498.03;4427888;32;20029;-69
2021/08/03 00:03:28;;;;;;;9.68;3.62;;;;;;;21.38;45.62;100504.53;4428295;32;20428;-69
2021/08/03 00:05:56;;;;;;;8.40;4.00;;;;;;;21.48;45.24;100500.88;4428387;32;21089;-69
2021/08/03 00:11:03;;;;;;;8.32;3.70;;;;;;;21.95;44.74;100496.22;3984465;32;15022186;-69
2021/08/03 00:13:30;;;;;;;6.60;4.05;;;;;;;21.95;44.74;100496.22;4431376;32;20030;-69
2021/08/03 00:16:01;;;;;;;7.28;3.92;;;;;;;21.34;45.45;100487.63;4433249;32;20074;-69
2021/08/03 00:18:28;;;;;;;9.55;4.15;;;;;;;21.38;45.50;100490.22;4434898;32;20471;-69
2021/08/03 00:20:55;;;;;;;8.63;4.15;;;;;;;21.33;45.61;100491.00;4432876;32;20411;-69
2021/08/03 00:23:22;;;;;;;8.48;4.07;;;;;;;20.99;45.92;100495.88;4430071;32;20080;-69
2021/08/03 00:25:51;;;;;;;9.38;4.97;;;;;;;21.04;45.88;100491.47;4433427;32;20096;-69
2021/08/03 00:28:17;;;;;;;7.47;4.37;;;;;;;21.30;45.48;100492.81;4434807;32;20106;-69
2021/08/03 00:30:43;;;;;;;10.20;4.30;;;;;;;21.16;45.86;100487.31;4434788;32;20034;-69
2021/08/03 00:33:11;;;;;;;7.12;3.97;;;;;;;21.05;46.18;100488.09;4436810;32;20429;-69
2021/08/03 00:35:37;;;;;;;9.00;4.53;;;;;;;21.19;45.69;100487.09;4432210;32;20034;-69
2021/08/03 00:38:03;;;;;;;7.12;4.30;;;;;;;21.01;46.09;100483.91;4436421;32;20347;-69
2021/08/03 00:40:31;;;;;;;7.25;3.50;;;;;;;20.85;46.40;100476.03;4430797;32;20093;-69
2021/08/03 00:42:57;;;;;;;9.07;4.62;;;;;;;21.04;45.90;100477.94;4433387;32;20033;-69
2021/08/03 00:45:22;;;;;;;5.43;3.50;;;;;;;20.82;46.12;100479.94;4435486;32;20050;-69
2021/08/03 00:47:48;;;;;;;6.60;4.12;;;;;;;20.59;46.72;100479.06;4430879;32;20025;-69
2021/08/03 00:50:14;;;;;;;8.18;3.95;;;;;;;20.67;46.44;100467.91;4432324;32;20361;-69
2021/08/03 00:52:41;;;;;;;12.23;3.97;;;;;;;20.56;46.54;100468.66;4432084;32;20331;-69
2021/08/03 00:55:09;;;;;;;6.72;3.80;;;;;;;20.51;46.74;100466.59;4435710;32;20056;-69
2021/08/03 00:57:36;;;;;;;8.18;3.92;;;;;;;20.68;46.53;100467.41;4427650;32;20084;-69
2021/08/03 01:00:02;;;;;;;7.10;4.28;;;;;;;20.55;46.73;100469.97;4432966;32;20413;-69
2021/08/03 01:02:29;;;;;;;6.05;4.20;;;;;;;20.64;46.54;100466.88;4432298;32;20081;-69
2021/08/03 01:04:55;;;;;;;7.95;4.68;;;;;;;20.54;46.78;100461.91;4435715;32;20064;-69
2021/08/03 01:10:25;;;;;;;9.02;4.68;;;;;;;21.14;46.00;100469.91;3982657;32;15024803;-69
2021/08/03 01:13:03;;;;;;;8.60;4.80;;;;;;;21.14;46.00;100469.91;4434534;32;21343;-69
2021/08/03 01:21:16;;;;;;;7.45;4.35;;;;;;;20.97;46.32;100475.59;3991206;31;15016582;-69
2021/08/03 01:24:11;;;;;;;12.55;5.72;;;;;;;20.97;46.32;100475.59;4446306;32;20136;-69
2021/08/03 01:26:57;;;;;;;7.50;4.40;;;;;;;20.48;47.05;100467.59;4447303;32;20067;-69
2021/08/03 01:29:26;;;;;;;11.35;3.97;;;;;;;20.43;47.15;100470.44;4448941;32;20041;-69
2021/08/03 01:31:56;;;;;;;9.20;4.07;;;;;;;20.28;47.24;100470.63;4446339;32;20017;-69
2021/08/03 01:34:26;;;;;;;10.23;4.15;;;;;;;20.34;46.97;100476.38;4447891;32;20164;-69
2021/08/03 01:36:55;;;;;;;7.78;3.97;;;;;;;20.24;47.17;100478.66;4447129;32;20104;-69
2021/08/03 01:39:39;;;;;;;6.20;4.10;;;;;;;20.11;47.46;100481.16;4449803;32;20506;-69
2021/08/03 01:42:08;;;;;;;8.48;4.05;;;;;;;20.26;46.87;100466.72;4448331;32;20033;-69
2021/08/03 01:44:35;;;;;;;7.45;3.62;;;;;;;19.94;47.64;100474.53;4447107;32;20413;-69
2021/08/03 01:47:03;;;;;;;8.88;4.07;;;;;;;20.01;47.47;100479.81;4448888;32;20100;-69
2021/08/03 01:49:34;;;;;;;5.82;3.70;;;;;;;19.99;47.39;100465.25;4448890;32;20390;-69
2021/08/03 01:52:01;;;;;;;6.68;3.97;;;;;;;20.06;47.19;100470.47;4447300;32;20396;-69
2021/08/03 01:54:27;;;;;;;7.20;3.87;;;;;;;19.97;47.34;100456.38;4446421;32;20401;-69
2021/08/03 01:56:54;;;;;;;5.93;3.87;;;;;;;19.95;47.17;100455.34;4450146;32;20335;-69
2021/08/03 01:59:21;;;;;;;6.65;3.62;;;;;;;19.90;47.37;100465.44;4445860;32;20106;-69
2021/08/03 02:01:48;;;;;;;6.72;3.47;;;;;;;19.96;47.12;100460.53;4447424;32;20029;-69
2021/08/03 02:04:16;;;;;;;5.00;3.85;;;;;;;19.97;47.15;100464.19;4447808;32;20033;-69
2021/08/03 02:06:42;;;;;;;7.35;4.12;;;;;;;19.98;47.06;100462.91;4447503;32;20085;-70
2021/08/03 02:09:09;;;;;;;8.88;4.55;;;;;;;19.85;47.25;100474.75;4446967;32;20021;-70
2021/08/03 02:11:36;;;;;;;8.95;4.97;;;;;;;19.82;47.45;100470.03;4448622;32;20507;-69
2021/08/03 02:14:03;;;;;;;10.05;4.35;;;;;;;19.97;47.31;100470.66;4449814;32;20051;-70
2021/08/03 02:16:31;;;;;;;10.35;4.32;;;;;;;20.01;47.23;100476.16;4445844;32;20056;-70
2021/08/03 02:18:56;;;;;;;7.43;4.20;;;;;;;19.94;47.56;100485.22;4443538;32;20049;-69
2021/08/03 02:21:23;;;;;;;10.02;4.75;;;;;;;19.82;47.61;100478.63;4449256;32;20417;-70
2021/08/03 02:23:50;;;;;;;10.10;4.43;;;;;;;19.91;47.77;100481.28;4447873;32;20127;-70
2021/08/03 02:26:16;;;;;;;9.10;4.62;;;;;;;19.83;47.67;100482.25;4444207;32;20081;-70
2021/08/03 02:28:43;;;;;;;7.97;4.87;;;;;;;19.70;47.98;100482.72;4443951;32;20088;-69
2021/08/03 02:31:15;;;;;;;8.52;4.68;;;;;;;19.76;47.79;100478.59;4441900;32;20041;-70
2021/08/03 02:33:50;;;;;;;9.60;5.10;;;;;;;19.93;47.47;100484.41;4439310;32;20037;-69
2021/08/03 02:36:21;;;;;;;10.27;5.22;;;;;;;19.79;47.89;100476.81;4435202;32;20081;-70
2021/08/03 02:38:55;;;;;;;9.15;4.82;;;;;;;19.62;48.21;100476.69;4438795;32;20125;-69
2021/08/03 02:41:21;;;;;;;6.20;4.53;;;;;;;19.79;47.66;100476.81;4434991;32;20097;-70
2021/08/03 02:43:50;;;;;;;7.90;4.75;;;;;;;19.59;47.98;100474.84;4440276;32;20060;-69
2021/08/03 02:46:17;;;;;;;10.70;4.80;;;;;;;19.71;47.92;100485.06;4435889;32;20101;-69
2021/08/03 02:48:52;;;;;;;10.90;5.03;;;;;;;19.54;48.32;100474.78;4436738;32;20111;-69
2021/08/03 02:51:18;;;;;;;8.80;4.22;;;;;;;19.48;48.48;100482.50;4432265;32;20026;-69
2021/08/03 02:56:22;;;;;;;12.77;4.87;;;;;;;19.61;47.89;100485.75;3982945;32;15023782;-69
2021/08/03 02:58:55;;;;;;;8.90;4.32;;;;;;;19.41;48.43;100483.75;4430713;32;20144;-69
2021/08/03 03:01:24;;;;;;;6.07;4.20;;;;;;;19.64;47.74;100484.72;4433097;32;20059;-69
2021/08/03 03:03:54;;;;;;;9.02;4.97;;;;;;;19.45;47.98;100484.31;4433392;32;20055;-69
2021/08/03 03:06:22;;;;;;;7.10;4.50;;;;;;;19.49;47.76;100482.00;4433604;32;20586;-69
2021/08/03 03:08:48;;;;;;;7.90;4.30;;;;;;;19.37;48.06;100476.72;4434199;32;20092;-69
2021/08/03 03:11:17;;;;;;;11.38;4.57;;;;;;;19.34;47.90;100474.87;4436217;32;20136;-70
2021/08/03 03:16:22;;;;;;;7.18;4.32;;;;;;;19.53;48.02;100481.78;3955134;32;15725041;-69
2021/08/03 03:18:49;;;;;;;7.43;4.95;;;;;;;19.53;48.02;100481.78;4419273;32;20090;-69
2021/08/03 03:21:18;;;;;;;7.10;4.00;;;;;;;19.12;48.25;100486.03;4432381;32;20021;-69
2021/08/03 03:23:48;;;;;;;8.90;3.80;;;;;;;19.20;47.69;100479.38;4429825;32;20056;-69
2021/08/03 03:26:15;;;;;;;8.43;4.20;;;;;;;18.99;48.05;100483.56;4433793;32;20034;-69
2021/08/03 03:28:41;;;;;;;7.80;4.37;;;;;;;18.88;48.00;100483.47;4430041;32;20085;-69
2021/08/03 03:31:08;;;;;;;6.22;3.70;;;;;;;18.89;48.15;100481.37;4434021;32;20069;-69
2021/08/03 03:33:38;;;;;;;7.85;3.75;;;;;;;18.74;48.25;100480.69;4430813;32;20395;-69
2021/08/03 03:36:05;;;;;;;7.68;4.07;;;;;;;18.84;48.09;100474.34;4433506;32;20034;-69
2021/08/03 03:38:36;;;;;;;6.45;3.60;;;;;;;18.90;47.86;100472.31;4433566;32;20107;-69
2021/08/03 03:41:02;;;;;;;8.43;3.92;;;;;;;18.83;48.05;100472.78;4430676;32;20041;-69
2021/08/03 03:43:29;;;;;;;5.53;3.78;;;;;;;18.74;48.01;100472.13;4431422;32;20034;-69
2021/08/03 03:46:03;;;;;;;7.35;3.55;;;;;;;18.86;48.07;100468.91;4431504;32;20026;-69
2021/08/03 03:48:33;;;;;;;7.12;3.83;;;;;;;18.94;47.85;100464.34;4429691;32;20013;-69
2021/08/03 03:51:02;;;;;;;8.50;4.12;;;;;;;18.91;48.03;100464.56;4431801;32;20080;-69
2021/08/03 03:53:55;;;;;;;7.70;4.87;;;;;;;18.83;48.14;100460.56;4431673;32;20536;-69
2021/08/03 03:56:29;;;;;;;11.20;4.25;;;;;;;18.97;47.77;100456.84;4430503;32;20077;-69
2021/08/03 03:58:59;;;;;;;8.18;4.50;;;;;;;18.96;47.92;100461.00;4433054;32;20053;-69
2021/08/03 04:01:25;;;;;;;8.48;4.80;;;;;;;18.94;47.98;100467.22;4434360;32;20119;-69
2021/08/03 04:03:53;;;;;;;8.70;4.45;;;;;;;18.74;48.22;100469.28;4432227;32;20060;-69
2021/08/03 04:06:19;;;;;;;7.32;4.25;;;;;;;18.84;48.05;100468.63;4430304;32;20021;-69
2021/08/03 04:08:45;;;;;;;9.90;4.28;;;;;;;18.40;48.64;100468.13;4431563;32;20177;-69
2021/08/03 04:11:14;;;;;;;8.07;3.78;;;;;;;18.71;48.12;100471.09;4431125;32;20046;-69
2021/08/03 04:13:43;;;;;;;12.25;4.00;;;;;;;18.63;48.12;100469.19;4431975;32;20018;-69
2021/08/03 04:16:08;;;;;;;6.87;3.90;;;;;;;18.88;47.59;100468.41;4432558;32;20463;-69
2021/08/03 04:18:34;;;;;;;6.95;4.20;;;;;;;18.75;47.44;100468.03;4429159;32;20104;-69
2021/08/03 04:21:00;;;;;;;5.87;3.90;;;;;;;18.74;47.50;100463.59;4432925;32;20033;-69
2021/08/03 04:23:26;;;;;;;8.45;4.30;;;;;;;18.68;47.53;100465.62;4430002;32;20429;-69
2021/08/03 04:25:52;;;;;;;11.57;4.20;;;;;;;18.74;47.42;100466.44;4429035;32;20097;-69
2021/08/03 04:28:17;;;;;;;7.78;4.28;;;;;;;18.51;47.98;100467.47;4420454;32;20102;-69
2021/08/03 04:30:43;;;;;;;10.63;4.40;;;;;;;18.57;47.96;100469.12;4421656;32;20130;-69
2021/08/03 04:33:09;;;;;;;10.65;4.90;;;;;;;18.69;47.77;100472.88;4423192;32;20537;-69
2021/08/03 04:35:34;;;;;;;8.27;4.07;;;;;;;18.51;48.13;100464.63;4420809;32;20042;-69
2021/08/03 04:38:00;;;;;;;7.00;4.20;;;;;;;18.46;48.28;100465.31;4419615;32;20051;-69
2021/08/03 04:40:26;;;;;;;7.03;4.43;;;;;;;18.50;48.20;100471.63;4427038;32;20037;-69
2021/08/03 04:42:51;;;;;;;5.82;3.85;;;;;;;18.45;48.44;100472.31;4419812;32;20040;-69
2021/08/03 04:45:17;;;;;;;6.50;3.55;;;;;;;18.51;48.22;100478.88;4423085;32;20442;-69
2021/08/03 04:47:46;;;;;;;7.37;4.25;;;;;;;18.49;48.15;100475.72;4419261;32;20045;-69
2021/08/03 04:50:16;;;;;;;10.30;4.25;;;;;;;18.66;47.46;100476.72;4421301;32;20096;-69
2021/08/03 04:52:41;;;;;;;6.47;3.87;;;;;;;18.52;47.68;100469.81;4422686;32;20104;-69
2021/08/03 04:55:08;;;;;;;9.02;4.87;;;;;;;18.27;47.78;100464.03;4418008;32;20462;-69
2021/08/03 04:57:34;;;;;;;8.38;4.00;;;;;;;18.39;47.87;100471.47;4422790;32;20056;-69
2021/08/03 05:00:00;;;;;;;7.62;4.20;;;;;;;18.43;47.44;100467.13;4421106;32;20073;-69
2021/08/03 05:02:26;;;;;;;8.18;4.32;;;;;;;18.33;47.66;100462.03;4420894;32;20053;-69
2021/08/03 05:04:52;;;;;;;6.72;4.20;;;;;;;18.43;47.68;100467.13;4424015;32;20025;-69
2021/08/03 05:07:17;;;;;;;13.15;4.50;;;;;;;18.43;47.88;100480.56;4420625;32;20091;-69
2021/08/03 05:09:43;;;;;;;11.23;5.05;;;;;;;18.50;47.73;100477.31;4419298;32;20030;-70
2021/08/03 05:12:09;;;;;;;9.48;4.60;;;;;;;18.35;47.76;100465.94;4422733;32;20072;-69
2021/08/03 05:14:34;;;;;;;12.23;4.10;;;;;;;18.39;47.65;100485.72;4420503;32;20105;-69
2021/08/03 05:17:00;;;;;;;12.13;5.05;;;;;;;18.58;47.32;100484.13;4421252;32;20429;-69
2021/08/03 05:19:26;;;;;;;6.80;4.03;;;;;;;18.69;46.95;100485.06;4418153;32;21520;-69
2021/08/03 05:21:52;;;;;;;9.90;4.53;;;;;;;18.68;47.04;100489.19;4423542;32;20122;-69
2021/08/03 05:24:25;;;;;;;7.07;3.97;;;;;;;18.67;46.74;100481.13;4422380;32;20085;-69
2021/08/03 05:26:52;;;;;;;13.80;4.70;;;;;;;18.82;46.44;100487.53;4407774;32;20324;-69
2021/08/03 05:29:18;;;;;;;7.12;3.83;;;;;;;18.84;46.48;100490.69;4421706;32;20038;-69
2021/08/03 05:31:43;;;;;;;10.52;4.22;;;;;;;18.86;46.51;100490.94;4420648;32;20033;-69
2021/08/03 05:34:09;;;;;;;11.20;4.22;;;;;;;19.03;46.02;100484.16;4418316;32;20054;-69
2021/08/03 05:36:35;;;;;;;10.20;4.82;;;;;;;19.23;45.67;100489.00;4418834;32;20073;-69
2021/08/03 05:39:00;;;;;;;13.40;4.43;;;;;;;19.44;45.61;100488.47;4422484;32;20052;-69
2021/08/03 05:41:26;;;;;;;12.90;4.53;;;;;;;19.63;45.12;100483.16;4420235;32;20494;-69
2021/08/03 05:43:52;;;;;;;8.40;4.32;;;;;;;19.76;45.00;100489.25;4417422;32;20518;-70
2021/08/03 05:46:18;;;;;;;9.80;4.65;;;;;;;19.80;44.58;100489.78;4420597;32;20151;-69
2021/08/03 05:48:43;;;;;;;12.23;5.30;;;;;;;20.12;44.29;100482.75;4419753;32;20103;-69
2021/08/03 05:51:09;;;;;;;18.92;4.60;;;;;;;20.14;43.83;100483.03;4424305;32;20130;-70
2021/08/03 05:53:34;;;;;;;9.82;4.45;;;;;;;20.46;43.41;100483.72;4417691;32;20480;-69
2021/08/03 05:56:00;;;;;;;9.93;4.72;;;;;;;20.76;42.69;100491.37;4417730;32;20800;-69
2021/08/03 05:58:26;;;;;;;10.82;4.22;;;;;;;20.95;42.60;100483.91;4417163;32;20081;-70
2021/08/03 06:00:51;;;;;;;9.30;4.68;;;;;;;21.14;42.28;100489.94;4422383;32;20137;-69
2021/08/03 06:03:17;;;;;;;9.45;4.25;;;;;;;21.12;42.57;100486.81;4420408;32;20363;-69
2021/08/03 06:05:43;;;;;;;9.30;4.15;;;;;;;21.36;41.96;100478.53;4419064;32;20065;-70
2021/08/03 06:08:11;;;;;;;10.80;4.55;;;;;;;21.47;41.43;100481.37;4418746;32;20437;-69
2021/08/03 06:10:37;;;;;;;15.38;4.43;;;;;;;21.75;41.28;100495.72;4418674;32;20073;-69
2021/08/03 06:13:06;;;;;;;9.52;4.15;;;;;;;21.57;41.50;100486.31;4418562;32;20054;-69
2021/08/03 06:15:38;;;;;;;10.80;4.10;;;;;;;21.88;41.03;100482.44;4417535;32;20435;-69
2021/08/03 06:18:13;;;;;;;9.98;4.32;;;;;;;21.95;40.74;100484.78;4416976;32;20049;-69
2021/08/03 06:20:41;;;;;;;10.30;4.57;;;;;;;22.17;40.24;100481.06;4418824;32;20091;-70
2021/08/03 06:23:12;;;;;;;12.52;4.37;;;;;;;22.15;40.46;100483.69;4420062;32;20038;-70
2021/08/03 06:25:39;;;;;;;10.20;3.95;;;;;;;22.39;40.09;100490.38;4416309;32;20109;-69
2021/08/03 06:28:06;;;;;;;16.05;5.30;;;;;;;22.34;40.32;100491.19;4416367;32;20044;-69
2021/08/03 06:30:36;;;;;;;12.45;4.65;;;;;;;22.64;39.62;100488.50;4417935;32;20470;-69
2021/08/03 06:33:02;;;;;;;12.50;5.80;;;;;;;23.15;38.57;100494.22;4419971;32;20424;-69
2021/08/03 06:35:29;;;;;;;12.52;5.45;;;;;;;23.14;39.03;100491.88;4403610;32;20084;-69
2021/08/03 06:37:55;;;;;;;15.10;6.10;;;;;;;23.26;38.89;100485.56;4417084;32;20049;-69
2021/08/03 06:40:21;;;;;;;16.52;4.85;;;;;;;23.34;38.59;100486.56;4419726;32;20069;-69
2021/08/03 06:42:52;;;;;;;7.75;4.57;;;;;;;23.37;38.27;100487.56;4418548;32;20140;-69
2021/08/03 06:45:21;;;;;;;8.85;4.45;;;;;;;23.64;38.05;100488.66;4417082;32;20047;-69
2021/08/03 06:50:25;;;;;;;10.05;4.35;;;;;;;24.24;36.69;100490.97;3983404;32;15023759;-69
2021/08/03 06:52:52;;;;;;;6.32;3.87;;;;;;;24.24;36.69;100490.97;4435756;32;20095;-69
2021/08/03 06:55:23;;;;;;;7.78;3.97;;;;;;;23.63;37.18;100492.84;4431080;32;20055;-68
2021/08/03 06:57:53;;;;;;;9.32;3.85;;;;;;;23.96;36.85;100493.34;4431316;32;20037;-69
2021/08/03 07:00:21;;;;;;;11.73;4.28;;;;;;;24.19;36.58;100483.19;4435213;32;20073;-69
2021/08/03 07:02:49;;;;;;;12.20;4.07;;;;;;;24.02;36.33;100482.59;4436347;32;20085;-69
2021/08/03 07:05:19;;;;;;;6.72;4.05;;;;;;;24.26;36.07;100481.81;4433651;32;20112;-69
2021/08/03 07:07:45;;;;;;;9.85;3.83;;;;;;;24.24;36.05;100482.34;4434964;32;20038;-69
2021/08/03 07:10:13;;;;;;;9.77;4.30;;;;;;;24.39;35.50;100482.69;4433862;32;20089;-69
2021/08/03 07:12:44;;;;;;;8.55;4.10;;;;;;;24.45;35.26;100492.03;4436629;32;20045;-69
2021/08/03 07:15:11;;;;;;;7.18;4.40;;;;;;;24.52;35.22;100479.16;4432506;32;20041;-69
2021/08/03 07:17:39;;;;;;;7.03;4.12;;;;;;;24.60;35.13;100492.38;4434214;32;20100;-69
2021/08/03 07:20:05;;;;;;;10.57;4.47;;;;;;;24.51;35.21;100495.63;4439246;32;20038;-69
2021/08/03 07:22:36;;;;;;;7.03;3.45;;;;;;;24.53;34.92;100487.25;4435375;32;20041;-70
2021/08/03 07:25:03;;;;;;;7.45;3.42;;;;;;;24.90;34.33;100484.44;4435220;32;20053;-69
2021/08/03 07:27:29;;;;;;;8.10;3.33;;;;;;;24.89;33.99;100482.09;4433937;32;20539;-69
2021/08/03 07:29:55;;;;;;;8.05;3.10;;;;;;;24.91;33.92;100486.00;4438524;32;20077;-68
2021/08/03 07:32:21;;;;;;;7.12;3.33;;;;;;;25.09;33.66;100487.31;4438067;32;20430;-69
2021/08/03 07:34:47;;;;;;;10.60;3.70;;;;;;;24.97;33.82;100483.81;4433625;32;20092;-69
2021/08/03 07:37:13;;;;;;;7.60;3.08;;;;;;;25.06;33.93;100491.28;4434842;32;20042;-69
2021/08/03 07:39:40;;;;;;;4.85;3.17;;;;;;;25.30;33.40;100494.84;4434415;32;20042;-69
2021/08/03 07:42:07;;;;;;;7.32;3.42;;;;;;;25.52;33.13;100487.22;4437143;32;20132;-69
2021/08/03 07:44:34;;;;;;;5.53;3.20;;;;;;;25.63;33.38;100482.03;4435362;32;20055;-69
2021/08/03 07:47:00;;;;;;;6.12;3.05;;;;;;;25.74;33.13;100486.84;4432097;32;20470;-69
2021/08/03 07:49:25;;;;;;;8.18;3.40;;;;;;;25.79;32.86;100486.75;4432846;32;20536;-69
2021/08/03 07:51:52;;;;;;;5.40;2.62;;;;;;;25.94;32.23;100491.97;4434433;32;20057;-69
2021/08/03 07:54:18;;;;;;;6.80;3.08;;;;;;;26.20;31.37;100497.84;4433231;32;20140;-69
2021/08/03 07:56:43;;;;;;;4.80;2.87;;;;;;;26.47;30.81;100493.63;4434038;32;20033;-69
2021/08/03 07:59:09;;;;;;;5.45;3.22;;;;;;;26.83;30.36;100498.41;4436665;32;20090;-69
2021/08/03 08:01:36;;;;;;;6.93;3.17;;;;;;;27.15;30.08;100501.09;4424772;32;20041;-69
2021/08/03 08:04:02;;;;;;;4.12;2.55;;;;;;;27.65;29.53;100494.16;4428862;32;20363;-69
2021/08/03 08:06:29;;;;;;;4.55;2.80;;;;;;;27.73;29.23;100489.25;4426254;32;20439;-69
2021/08/03 08:08:54;;;;;;;3.97;2.90;;;;;;;27.88;29.18;100495.94;4425078;32;20080;-69
2021/08/03 08:11:21;;;;;;;4.57;2.78;;;;;;;27.77;29.23;100492.53;4424458;32;20093;-69
2021/08/03 08:13:46;;;;;;;5.30;3.10;;;;;;;27.78;28.85;100494.09;4424969;32;20448;-69
2021/08/03 08:16:12;;;;;;;5.57;2.87;;;;;;;27.80;28.87;100495.09;4424196;32;20099;-69
2021/08/03 08:18:38;;;;;;;7.25;2.83;;;;;;;27.77;28.89;100496.22;4422854;32;20146;-69
2021/08/03 08:21:04;;;;;;;4.47;2.78;;;;;;;27.61;29.15;100493.75;4425642;32;20579;-69
2021/08/03 08:23:30;;;;;;;11.10;3.10;;;;;;;27.52;29.44;100485.56;4424625;32;20553;-69
2021/08/03 08:25:58;;;;;;;4.32;2.53;;;;;;;27.42;29.70;100493.91;4424745;32;20433;-69
2021/08/03 08:28:24;;;;;;;4.55;2.78;;;;;;;27.59;29.40;100491.41;4425323;32;20073;-69
2021/08/03 08:30:50;;;;;;;5.15;2.75;;;;;;;27.57;29.51;100488.31;4427162;32;20085;-69
2021/08/03 08:33:16;;;;;;;6.28;2.53;;;;;;;27.39;29.89;100489.25;4428030;32;20072;-69
2021/08/03 08:35:42;;;;;;;7.90;3.50;;;;;;;27.51;29.76;100489.75;4424313;32;20068;-69
2021/08/03 08:38:09;;;;;;;8.90;3.87;;;;;;;27.69;29.48;100488.78;4426399;32;20098;-69
2021/08/03 08:40:37;;;;;;;7.82;3.95;;;;;;;27.66;29.56;100487.03;4424002;32;20209;-69
2021/08/03 08:43:03;;;;;;;7.53;4.00;;;;;;;27.61;29.93;100480.03;4425571;32;20068;-69
2021/08/03 08:45:30;;;;;;;9.38;4.28;;;;;;;27.68;29.94;100482.25;4425106;32;20431;-69
2021/08/03 08:47:57;;;;;;;7.32;4.65;;;;;;;27.84;30.03;100488.94;4419192;32;20073;-69
2021/08/03 08:50:25;;;;;;;6.97;4.70;;;;;;;28.18;29.82;100483.84;4411173;32;20080;-69
2021/08/03 08:52:53;;;;;;;9.25;4.45;;;;;;;28.53;29.50;100486.81;4410275;32;20363;-69
2021/08/03 08:55:20;;;;;;;5.15;3.72;;;;;;;28.85;28.75;100484.31;4409709;32;20535;-69
2021/08/03 08:57:48;;;;;;;7.78;3.80;;;;;;;29.11;28.17;100483.25;4409288;32;20089;-69
2021/08/03 09:00:13;;;;;;;10.43;3.55;;;;;;;28.89;28.46;100481.00;4410943;32;20119;-69
2021/08/03 09:05:17;;;;;;;10.33;4.17;;;;;;;30.40;26.95;100482.09;3952672;32;15852513;-70
2021/08/03 09:07:48;;;;;;;9.65;3.90;;;;;;;30.40;26.95;100482.09;4431350;32;20037;-70
2021/08/03 09:10:49;;;;;;;7.07;4.10;;;;;;;30.56;26.45;100480.69;4430054;32;20097;-69
2021/08/03 09:13:20;;;;;;;10.25;4.85;;;;;;;30.81;26.13;100481.63;4417209;32;20034;-69
2021/08/03 09:15:57;;;;;;;7.20;3.53;;;;;;;30.78;26.40;100476.97;4427488;32;20038;-69
2021/08/03 09:18:34;;;;;;;8.02;4.40;;;;;;;31.10;26.07;100477.03;4418385;32;20060;-70
2021/08/03 09:21:00;;;;;;;7.28;4.47;;;;;;;31.22;25.84;100478.13;4429420;32;20165;-69
2021/08/03 09:23:45;;;;;;;9.35;5.10;;;;;;;30.80;26.25;100469.22;4431441;32;20120;-70
2021/08/03 09:26:13;;;;;;;8.70;5.10;;;;;;;31.51;25.66;100467.72;4433448;32;20200;-70
2021/08/03 09:29:01;;;;;;;10.50;6.55;;;;;;;31.38;25.99;100476.69;4431964;32;20405;-69
2021/08/03 09:31:28;;;;;;;9.90;5.78;;;;;;;31.58;25.86;100469.00;4432571;32;20091;-69
2021/08/03 09:33:54;;;;;;;7.72;4.97;;;;;;;31.93;25.08;100464.88;4431196;32;20463;-69
2021/08/03 09:39:47;;;;;;;11.93;5.72;;;;;;;33.04;23.88;100472.31;3982620;32;15024714;-70
2021/08/03 09:42:20;;;;;;;10.10;6.15;;;;;;;33.04;23.88;100472.31;4435457;32;20021;-70
2021/08/03 09:47:23;;;;;;;15.52;11.80;;;;;;;31.84;25.14;100465.56;3978277;32;15024379;-69
2021/08/03 09:49:51;;;;;;;33.83;22.02;;;;;;;31.84;25.14;100465.56;4432889;32;20128;-70
2021/08/03 09:52:19;;;;;;;15.27;8.82;;;;;;;31.46;25.66;100462.91;4433172;32;20091;-69
2021/08/03 09:54:46;;;;;;;9.77;7.18;;;;;;;31.23;25.94;100453.50;4433267;32;20065;-70
2021/08/03 09:59:55;;;;;;;9.55;6.22;;;;;;;31.37;26.03;100459.84;3982320;32;15025760;-70
2021/08/03 10:02:23;;;;;;;11.27;6.05;;;;;;;31.37;26.03;100459.84;4436049;32;20063;-70
2021/08/03 10:04:51;;;;;;;12.27;6.80;;;;;;;30.90;26.42;100445.34;4433993;32;20087;-70
2021/08/03 10:07:17;;;;;;;38.38;20.75;;;;;;;30.91;26.54;100449.78;4435821;32;20387;-70
2021/08/03 10:09:44;;;;;;;71.43;37.20;;;;;;;31.30;26.04;100451.94;4435865;32;20049;-70
2021/08/03 10:12:10;;;;;;;16.17;9.15;;;;;;;31.75;25.77;100442.91;4433549;32;20022;-70
2021/08/03 10:14:36;;;;;;;9.95;6.37;;;;;;;32.15;25.52;100434.81;4436466;32;20088;-70
2021/08/03 10:17:02;;;;;;;10.90;6.57;;;;;;;32.38;25.12;100439.06;4436988;32;20042;-70
2021/08/03 10:19:32;;;;;;;11.98;6.95;;;;;;;32.33;25.02;100437.13;4434208;32;20102;-70
2021/08/03 10:24:59;;;;;;;10.55;7.00;;;;;;;33.02;23.96;100440.06;3980351;32;15022646;-71
2021/08/03 10:27:48;;;;;;;10.75;7.07;;;;;;;33.68;23.21;100443.38;4437403;32;20045;-70
2021/08/03 10:33:10;;;;;;;11.43;7.37;;;;;;;34.61;21.97;100433.19;3981902;32;15024668;-70
2021/08/03 10:38:20;;;;;;;15.93;8.38;;;;;;;35.36;21.38;100432.34;3978680;32;15027445;-70
2021/08/03 10:48:43;;;;;;;11.50;6.60;;;;;;;36.33;19.51;100443.03;3981130;32;15025398;-70
2021/08/03 10:54:12;;;;;;;11.20;7.50;;;;;;;36.18;20.11;100432.47;3982329;32;15024655;-70
2021/08/03 11:10:24;;;;;;;16.37;7.00;;;;;;;36.04;20.80;100428.53;3996938;31;15016892;-70
2021/08/03 11:12:51;;;;;;;11.90;6.85;;;;;;;36.04;20.80;100428.53;4452876;32;20300;-70
2021/08/03 11:23:17;;;;;;;11.00;5.68;;;;;;;38.00;18.24;100416.75;3998098;31;15016934;-71
2021/08/03 11:25:45;;;;;;;8.90;6.07;;;;;;;38.00;18.24;100416.75;4437407;32;20478;-69
2021/08/03 11:30:54;;;;;;;12.32;6.70;;;;;;;37.98;18.54;100413.72;3981765;32;15029525;-70
2021/08/03 11:33:21;;;;;;;9.18;6.28;;;;;;;37.98;18.54;100413.72;4430640;32;20060;-70
2021/08/03 11:35:47;;;;;;;11.07;6.22;;;;;;;37.66;19.12;100426.34;4432497;32;20064;-70
2021/08/03 11:38:15;;;;;;;12.32;6.70;;;;;;;37.00;19.31;100421.97;4431756;32;20033;-70
2021/08/03 11:40:42;;;;;;;13.23;6.53;;;;;;;35.86;20.67;100412.59;4432431;32;20467;-69
2021/08/03 11:43:10;;;;;;;11.48;7.18;;;;;;;35.71;21.00;100415.88;4430190;32;20107;-69
2021/08/03 11:45:39;;;;;;;10.45;6.10;;;;;;;34.91;21.56;100415.03;4432643;32;20060;-69
2021/08/03 11:48:17;;;;;;;10.43;5.95;;;;;;;34.77;21.76;100405.94;4429971;32;20038;-69
2021/08/03 11:50:43;;;;;;;10.13;6.35;;;;;;;34.66;22.18;100406.56;4433695;32;20084;-69
2021/08/03 11:53:19;;;;;;;10.77;5.55;;;;;;;34.92;22.05;100399.03;4436528;32;20438;-70
2021/08/03 11:55:46;;;;;;;7.97;4.65;;;;;;;35.75;20.82;100400.78;4433062;32;20465;-70
2021/08/03 11:58:20;;;;;;;14.40;8.70;;;;;;;36.65;19.38;100400.50;4430162;32;20080;-69
2021/08/03 12:00:46;;;;;;;6.45;3.42;;;;;;;36.83;18.90;100398.81;4432887;32;20100;-69
2021/08/03 12:03:11;;;;;;;29.83;18.58;;;;;;;36.76;18.55;100399.81;4430939;32;20053;-70
2021/08/03 12:05:38;;;;;;;9.75;6.40;;;;;;;36.97;19.04;100402.69;4432665;32;20414;-70
2021/08/03 12:10:42;;;;;;;10.63;4.62;;;;;;;37.06;18.88;100402.56;3983625;32;15025532;-70
2021/08/03 12:13:12;;;;;;;8.27;4.45;;;;;;;36.87;19.43;100396.91;4437289;32;20062;-69
2021/08/03 12:18:21;;;;;;;6.68;3.90;;;;;;;37.82;17.39;100398.00;3982442;32;15023242;-70
2021/08/03 12:23:29;;;;;;;6.40;4.07;;;;;;;37.61;17.81;100398.12;3996395;31;15022389;-70
2021/08/03 12:31:38;;;;;;;6.50;3.58;;;;;;;38.27;17.75;100390.53;3980875;32;15025698;-70
2021/08/03 12:42:34;;;;;;;8.07;4.07;;;;;;;37.21;18.35;100384.53;3998625;31;15016056;-70
2021/08/03 12:45:15;;;;;;;6.18;4.10;;;;;;;37.20;18.70;100374.19;4462246;32;20079;-70
2021/08/03 12:47:58;;;;;;;6.00;3.62;;;;;;;37.27;17.95;100378.31;4461646;32;20077;-70
2021/08/03 12:50:25;;;;;;;7.60;4.18;;;;;;;37.13;18.23;100371.47;4463964;32;20041;-69
2021/08/03 12:52:59;;;;;;;7.12;4.03;;;;;;;37.52;17.98;100390.19;4463387;32;20067;-69
2021/08/03 12:58:01;;;;;;;7.97;4.00;;;;;;;37.61;18.10;100365.81;3954399;32;15723552;-70
2021/08/03 13:03:08;;;;;;;7.57;3.70;;;;;;;38.06;18.12;100366.44;3992873;31;15016065;-70
2021/08/03 13:05:35;;;;;;;6.97;4.50;;;;;;;38.06;18.12;100366.44;4458904;32;20414;-70